Time;durP1;ratioP1;P1;durP2;ratioP2;P2;SDS_P1;SDS_P2;PMS_P1;PMS_P2;Temp;Humidity;BMP_temperature;BMP_pressure;BME280_temperature;BME280_humidity;BME280_pressure;Samples;Min_cycle;Max_cycle;Signal;HPM_P1;HPM_P2
2023/03/10 00:02:00;;;;;;;1.50;1.40;;;;;;;13.85;47.21;95534.03;5046979;28;20675;-68
2023/03/10 00:04:25;;;;;;;5.03;1.80;;;;;;;13.89;47.58;95531.78;5051842;28;20225;-68
2023/03/10 00:06:51;;;;;;;4.23;1.93;;;;;;;13.93;47.29;95517.16;5046465;28;20213;-69
2023/03/10 00:09:16;;;;;;;3.73;1.90;;;;;;;13.92;47.32;95510.28;5048943;28;20270;-68
2023/03/10 00:11:42;;;;;;;2.53;1.60;;;;;;;13.91;47.59;95503.41;5057605;28;20237;-69
2023/03/10 00:14:07;;;;;;;5.33;1.70;;;;;;;13.83;47.83;95489.47;5051124;28;20691;-68
2023/03/10 00:16:33;;;;;;;4.63;1.83;;;;;;;13.94;47.59;95489.78;5050973;28;20358;-68
2023/03/10 00:18:58;;;;;;;10.37;1.93;;;;;;;13.84;47.79;95487.66;5063710;28;20297;-68
2023/03/10 00:21:26;;;;;;;3.80;1.90;;;;;;;13.84;47.75;95487.66;5056832;28;20269;-70
2023/03/10 00:23:52;;;;;;;6.57;1.80;;;;;;;13.86;47.72;95482.19;5057320;28;20217;-70
2023/03/10 00:26:19;;;;;;;4.33;1.60;;;;;;;13.73;47.65;95483.88;5055166;28;20448;-70
2023/03/10 00:28:45;;;;;;;2.03;1.50;;;;;;;13.66;48.06;95475.25;5058115;28;20422;-70
2023/03/10 00:31:16;;;;;;;2.37;1.70;;;;;;;13.69;47.56;95471.38;5047409;28;20486;-71
2023/03/10 00:33:41;;;;;;;3.77;1.80;;;;;;;13.76;47.44;95459.78;5048783;28;20702;-68
2023/03/10 00:36:13;;;;;;;5.27;1.97;;;;;;;13.77;46.99;95463.19;5056496;28;20414;-69
2023/03/10 00:38:39;;;;;;;3.20;1.70;;;;;;;13.81;47.05;95451.22;5057793;28;20206;-70
2023/03/10 00:41:11;;;;;;;4.33;1.80;;;;;;;13.82;46.82;95455.47;5053344;28;20413;-70
2023/03/10 00:43:36;;;;;;;4.30;1.87;;;;;;;13.77;47.03;95439.50;5052752;28;20503;-69
2023/03/10 00:46:03;;;;;;;2.40;1.50;;;;;;;13.66;47.13;95439.19;5050381;28;20429;-69
2023/03/10 00:48:28;;;;;;;4.17;1.53;;;;;;;13.70;47.12;95439.56;5056035;28;20187;-69
2023/03/10 00:50:54;;;;;;;5.27;1.40;;;;;;;13.70;47.46;95438.78;5041891;28;20869;-69
2023/03/10 00:53:20;;;;;;;4.27;1.43;;;;;;;13.74;47.75;95435.50;5057443;28;20202;-68
2023/03/10 00:56:00;;;;;;;2.20;1.60;;;;;;;13.67;47.65;95432.91;5053348;28;20185;-68
2023/03/10 00:58:25;;;;;;;3.93;1.50;;;;;;;13.65;48.16;95429.69;5045652;28;20259;-68
2023/03/10 01:00:51;;;;;;;2.43;1.37;;;;;;;13.69;47.99;95424.00;5056762;28;20433;-69
2023/03/10 01:03:16;;;;;;;5.53;1.53;;;;;;;13.66;48.31;95415.50;5050900;28;20207;-68
2023/03/10 01:05:41;;;;;;;5.70;1.87;;;;;;;13.69;48.34;95416.09;5045771;28;20271;-68
2023/03/10 01:08:07;;;;;;;1.87;1.40;;;;;;;13.70;48.51;95412.44;5049332;28;20175;-69
2023/03/10 01:10:32;;;;;;;2.70;1.33;;;;;;;13.70;48.59;95413.25;5049676;28;20267;-69
2023/03/10 01:12:58;;;;;;;3.63;1.83;;;;;;;13.53;49.26;95420.88;5053519;28;20742;-68
2023/03/10 01:15:23;;;;;;;5.13;1.70;;;;;;;13.55;49.33;95403.03;5042724;28;20260;-69
2023/03/10 01:17:49;;;;;;;3.87;1.50;;;;;;;13.55;49.23;95405.69;5044392;28;20213;-69
2023/03/10 01:20:15;;;;;;;2.37;1.40;;;;;;;13.60;49.42;95391.88;5047679;28;20209;-68
2023/03/10 01:22:41;;;;;;;7.00;1.80;;;;;;;13.63;49.18;95402.75;5054587;28;20309;-69
2023/03/10 01:25:12;;;;;;;2.33;1.60;;;;;;;13.62;49.43;95398.53;5049142;28;20436;-69
2023/03/10 01:27:38;;;;;;;5.57;1.77;;;;;;;13.60;49.52;95390.06;5042207;28;20421;-69
2023/03/10 01:30:03;;;;;;;2.50;1.43;;;;;;;13.53;49.75;95397.19;5051229;28;20500;-70
2023/03/10 01:32:29;;;;;;;2.67;1.50;;;;;;;13.37;50.34;95386.13;5056704;28;20182;-69
2023/03/10 01:34:54;;;;;;;3.20;1.70;;;;;;;13.48;49.24;95389.94;5053100;28;20187;-69
2023/03/10 01:37:20;;;;;;;3.90;1.30;;;;;;;13.47;49.47;95387.53;5043465;28;20210;-69
2023/03/10 01:39:45;;;;;;;3.63;1.90;;;;;;;13.54;49.69;95383.00;5034758;28;20548;-69
2023/03/10 01:42:12;;;;;;;4.37;1.70;;;;;;;13.55;49.52;95376.72;5041753;28;20287;-68
2023/03/10 01:44:38;;;;;;;2.60;1.37;;;;;;;13.45;49.38;95381.69;5050881;28;21181;-68
2023/03/10 01:47:03;;;;;;;3.13;1.40;;;;;;;13.35;49.40;95372.41;5043381;28;20183;-68
2023/03/10 01:49:43;;;;;;;4.30;1.37;;;;;;;13.32;49.37;95374.66;5046910;28;20516;-68
2023/03/10 01:52:14;;;;;;;3.67;1.70;;;;;;;13.04;50.23;95381.13;5042467;28;20226;-68
2023/03/10 01:54:48;;;;;;;2.57;1.37;;;;;;;13.25;50.01;95368.66;5046806;28;21011;-67
2023/03/10 01:57:14;;;;;;;1.67;1.50;;;;;;;13.25;49.89;95366.81;5048987;28;20413;-69
2023/03/10 01:59:40;;;;;;;5.43;1.43;;;;;;;13.19;50.26;95368.47;5039091;28;20800;-70
2023/03/10 02:02:05;;;;;;;1.83;0.90;;;;;;;13.23;50.59;95374.13;5043410;28;20443;-70
2023/03/10 02:04:40;;;;;;;2.87;1.00;;;;;;;13.03;51.57;95374.25;5044841;28;20588;-69
2023/03/10 02:07:06;;;;;;;4.40;1.50;;;;;;;13.07;51.68;95357.03;5046147;28;20296;-69
2023/03/10 02:09:34;;;;;;;2.33;1.50;;;;;;;13.23;51.28;95355.72;5053683;28;20422;-70
2023/03/10 02:12:02;;;;;;;2.60;1.20;;;;;;;13.23;51.75;95345.19;5058125;28;20442;-69
2023/03/10 02:14:27;;;;;;;1.57;1.20;;;;;;;13.31;51.51;95367.78;5042565;28;20453;-69
2023/03/10 02:16:52;;;;;;;3.07;1.10;;;;;;;13.27;51.95;95346.38;5036226;28;20829;-69
2023/03/10 02:19:34;;;;;;;2.23;1.10;;;;;;;13.04;52.79;95346.97;5055358;28;20305;-68
2023/03/10 02:22:08;;;;;;;1.63;1.00;;;;;;;13.08;53.42;95347.34;5046641;28;20219;-68
2023/03/10 02:24:41;;;;;;;2.90;1.20;;;;;;;13.18;53.08;95339.75;5038925;28;20460;-68
2023/03/10 02:27:23;;;;;;;3.00;1.20;;;;;;;13.40;52.73;95348.13;5040954;28;20433;-69
2023/03/10 02:30:01;;;;;;;2.23;1.20;;;;;;;13.18;53.72;95339.75;5049312;28;20468;-68
2023/03/10 02:32:31;;;;;;;5.40;1.03;;;;;;;13.13;54.45;95336.97;5046700;28;20623;-68
2023/03/10 02:34:57;;;;;;;2.67;1.03;;;;;;;13.16;54.78;95337.38;5052518;28;20930;-68
2023/03/10 02:37:29;;;;;;;3.40;1.17;;;;;;;13.04;55.02;95341.69;5035157;28;20471;-68
2023/03/10 02:39:54;;;;;;;1.40;0.87;;;;;;;13.00;55.68;95346.56;5047700;28;20626;-68
2023/03/10 02:42:22;;;;;;;1.87;0.90;;;;;;;12.97;56.16;95336.50;5048865;28;20447;-69
2023/03/10 02:44:48;;;;;;;4.90;0.97;;;;;;;12.98;56.09;95338.06;5038583;28;20621;-69
2023/03/10 02:47:14;;;;;;;4.47;1.27;;;;;;;13.06;56.06;95340.47;5048276;28;20422;-71
2023/03/10 02:49:40;;;;;;;2.90;1.00;;;;;;;13.07;56.31;95341.25;5056102;28;20858;-69
2023/03/10 02:52:11;;;;;;;2.43;1.20;;;;;;;12.77;56.99;95335.78;5036315;28;20501;-68
2023/03/10 02:54:37;;;;;;;3.83;1.13;;;;;;;12.75;57.77;95331.53;5043290;28;20260;-69
2023/03/10 02:57:02;;;;;;;2.80;1.33;;;;;;;12.73;58.25;95315.19;5048643;28;20417;-68
2023/03/10 02:59:28;;;;;;;2.33;1.00;;;;;;;12.70;58.52;95322.69;5044380;28;20219;-68
2023/03/10 03:01:53;;;;;;;3.43;1.03;;;;;;;12.60;58.96;95305.56;5055232;28;20218;-69
2023/03/10 03:04:19;;;;;;;2.70;1.20;;;;;;;12.70;58.67;95313.00;5052208;28;20230;-68
2023/03/10 03:06:44;;;;;;;4.13;1.00;;;;;;;12.80;58.67;95312.50;5051495;28;20321;-69
2023/03/10 03:09:09;;;;;;;1.60;0.80;;;;;;;12.70;58.76;95310.38;5052721;28;20742;-69
2023/03/10 03:11:35;;;;;;;1.63;0.90;;;;;;;12.69;59.06;95329.78;5060287;28;20273;-69
2023/03/10 03:14:00;;;;;;;3.53;1.17;;;;;;;12.61;59.77;95322.13;5054248;28;20199;-68
2023/03/10 03:16:26;;;;;;;3.73;1.10;;;;;;;12.74;59.17;95319.41;5050814;28;20754;-69
2023/03/10 03:18:51;;;;;;;1.00;0.80;;;;;;;12.55;60.09;95313.28;5049083;28;20301;-69
2023/03/10 03:21:17;;;;;;;2.90;0.80;;;;;;;12.65;59.91;95318.06;5051622;28;20194;-68
2023/03/10 03:23:44;;;;;;;1.60;0.90;;;;;;;12.62;60.17;95320.31;5057340;28;20283;-68
2023/03/10 03:26:15;;;;;;;2.27;0.90;;;;;;;12.74;59.54;95318.63;5047973;28;20175;-69
2023/03/10 03:28:41;;;;;;;3.33;1.10;;;;;;;12.83;59.47;95308.66;5043801;28;20418;-68
2023/03/10 03:31:12;;;;;;;1.47;0.77;;;;;;;12.72;59.78;95304.88;5048403;28;20444;-69
2023/03/10 03:33:38;;;;;;;1.40;1.17;;;;;;;12.84;59.60;95294.50;5048323;28;20480;-69
2023/03/10 03:36:03;;;;;;;1.50;0.80;;;;;;;12.79;59.66;95289.88;5051004;28;20922;-69
2023/03/10 03:38:31;;;;;;;1.50;0.87;;;;;;;12.80;59.49;95277.53;5052056;28;20202;-69
2023/03/10 03:40:56;;;;;;;2.13;0.80;;;;;;;12.79;59.60;95291.72;5055490;28;20182;-68
2023/03/10 03:43:22;;;;;;;2.07;0.80;;;;;;;12.56;60.19;95293.06;5060780;28;20510;-68
2023/03/10 03:45:47;;;;;;;4.30;0.80;;;;;;;12.49;60.55;95289.66;5061288;28;20261;-68
2023/03/10 03:48:14;;;;;;;1.67;0.70;;;;;;;12.57;60.52;95295.47;5047588;28;20262;-69
2023/03/10 03:50:39;;;;;;;1.97;0.67;;;;;;;12.58;60.34;95291.84;5047275;28;20191;-70
2023/03/10 03:53:04;;;;;;;1.47;0.50;;;;;;;12.59;60.03;95282.16;5050724;28;20468;-70
2023/03/10 03:55:30;;;;;;;5.90;0.70;;;;;;;12.69;59.55;95290.34;5048506;28;20313;-69
2023/03/10 03:57:55;;;;;;;2.47;0.80;;;;;;;12.69;59.86;95271.97;5050532;28;20206;-68
2023/03/10 04:00:23;;;;;;;1.73;0.60;;;;;;;12.47;60.08;95278.59;5051326;28;20216;-68
2023/03/10 04:02:48;;;;;;;1.83;0.60;;;;;;;12.64;59.89;95282.28;5034819;28;20191;-68
2023/03/10 04:05:14;;;;;;;0.90;0.67;;;;;;;12.46;60.88;95276.97;5051252;28;21209;-69
2023/03/10 04:07:41;;;;;;;1.63;0.60;;;;;;;12.42;60.81;95276.56;5050179;28;20546;-68
2023/03/10 04:10:12;;;;;;;2.70;0.70;;;;;;;12.48;60.59;95278.34;5054369;28;20462;-69
2023/03/10 04:12:37;;;;;;;2.53;0.53;;;;;;;12.46;60.73;95276.97;5048354;28;20467;-69
2023/03/10 04:15:04;;;;;;;1.20;0.70;;;;;;;12.55;60.40;95262.56;5040947;28;20429;-69
2023/03/10 04:17:29;;;;;;;1.53;0.80;;;;;;;12.48;60.82;95259.97;5038264;28;20211;-69
2023/03/10 04:19:54;;;;;;;2.13;0.70;;;;;;;12.53;60.39;95259.31;5040462;28;20522;-69
2023/03/10 04:22:20;;;;;;;1.27;0.70;;;;;;;12.48;60.73;95264.41;5044934;28;20266;-69
2023/03/10 04:24:45;;;;;;;2.70;0.70;;;;;;;12.46;61.24;95261.22;5033129;28;20226;-68
2023/03/10 04:27:11;;;;;;;0.90;0.60;;;;;;;12.50;60.77;95251.88;5033965;28;20267;-69
2023/03/10 04:29:36;;;;;;;1.17;0.70;;;;;;;12.36;61.04;95264.28;5035810;28;20259;-68
2023/03/10 04:32:03;;;;;;;1.60;0.73;;;;;;;12.53;60.67;95261.97;5046248;28;20693;-69
2023/03/10 04:34:29;;;;;;;1.67;0.70;;;;;;;12.54;60.57;95260.94;5039387;28;20289;-69
2023/03/10 04:36:54;;;;;;;1.53;0.60;;;;;;;12.59;60.51;95261.91;5047619;28;20767;-69
2023/03/10 04:39:19;;;;;;;2.00;0.73;;;;;;;12.57;60.18;95263.94;5043074;28;20207;-69
2023/03/10 04:41:45;;;;;;;1.57;0.70;;;;;;;12.54;60.31;95247.81;5034069;28;20215;-69
2023/03/10 04:44:11;;;;;;;1.30;0.77;;;;;;;12.60;60.39;95254.84;5043153;28;20282;-70
2023/03/10 04:46:36;;;;;;;3.63;0.70;;;;;;;12.61;60.20;95261.69;5049602;28;20186;-70
2023/03/10 04:49:02;;;;;;;1.40;0.90;;;;;;;12.47;60.15;95258.34;5034718;28;20245;-69
2023/03/10 04:51:27;;;;;;;5.70;0.87;;;;;;;12.63;60.08;95251.00;5040015;28;20332;-69
2023/03/10 04:53:53;;;;;;;1.23;0.60;;;;;;;12.66;60.24;95234.81;5034530;28;20598;-69
2023/03/10 04:56:19;;;;;;;1.40;0.73;;;;;;;12.68;59.98;95244.06;5048229;28;20195;-69
2023/03/10 04:58:44;;;;;;;1.60;0.90;;;;;;;12.78;60.14;95251.50;5030610;28;20859;-69
2023/03/10 05:01:12;;;;;;;1.30;0.70;;;;;;;12.77;59.75;95235.91;5040169;28;20222;-68
2023/03/10 05:03:37;;;;;;;1.70;0.67;;;;;;;12.71;59.82;95233.16;5049227;28;20206;-69
2023/03/10 05:06:03;;;;;;;3.20;0.90;;;;;;;12.75;59.86;95233.50;5039932;28;20797;-70
2023/03/10 05:08:29;;;;;;;1.20;0.77;;;;;;;12.73;59.64;95225.03;5040075;28;20179;-69
2023/03/10 05:10:54;;;;;;;1.60;1.20;;;;;;;12.71;59.56;95221.81;5032975;28;20422;-69
2023/03/10 05:13:19;;;;;;;1.30;0.80;;;;;;;12.65;59.68;95222.69;5047912;28;20360;-69
2023/03/10 05:15:45;;;;;;;1.37;0.80;;;;;;;12.68;59.48;95223.06;5035248;28;20179;-69
2023/03/10 05:18:11;;;;;;;1.27;0.70;;;;;;;12.72;59.66;95221.63;5040736;28;20235;-69
2023/03/10 05:20:37;;;;;;;1.10;0.70;;;;;;;12.73;58.86;95215.31;5045753;28;20191;-69
2023/03/10 05:23:03;;;;;;;2.00;0.80;;;;;;;12.67;59.13;95215.38;5040146;28;20453;-69
2023/03/10 05:25:28;;;;;;;1.30;0.80;;;;;;;12.62;59.34;95213.38;5048553;28;20433;-69
2023/03/10 05:27:54;;;;;;;0.90;0.60;;;;;;;12.65;59.76;95201.66;5047971;28;20175;-69
2023/03/10 05:30:20;;;;;;;3.90;1.23;;;;;;;12.62;59.32;95208.13;5034816;28;20986;-70
2023/03/10 05:32:45;;;;;;;1.83;0.90;;;;;;;12.65;59.06;95212.16;5037432;28;20202;-69
2023/03/10 05:35:11;;;;;;;1.73;0.80;;;;;;;12.60;58.97;95210.19;5036524;28;20206;-69
2023/03/10 05:37:41;;;;;;;2.53;1.00;;;;;;;12.54;59.28;95211.03;5039738;28;20191;-69
2023/03/10 05:40:09;;;;;;;3.83;1.07;;;;;;;12.48;59.58;95214.50;5044313;28;20433;-69
2023/03/10 05:42:34;;;;;;;2.03;1.23;;;;;;;12.49;59.65;95211.66;5041650;28;20424;-68
2023/03/10 05:45:00;;;;;;;4.30;2.43;;;;;;;12.55;59.17;95212.63;5035260;28;20510;-68
2023/03/10 05:47:25;;;;;;;3.50;2.50;;;;;;;12.58;58.96;95217.47;5041175;28;20211;-70
2023/03/10 05:49:51;;;;;;;2.13;1.80;;;;;;;12.64;58.79;95215.81;5054420;28;20232;-69
2023/03/10 05:52:16;;;;;;;5.00;2.17;;;;;;;12.66;58.95;95209.31;5036771;28;20715;-69
2023/03/10 05:54:42;;;;;;;2.80;1.27;;;;;;;12.59;59.24;95200.69;5042028;28;20198;-69
2023/03/10 05:57:07;;;;;;;4.20;1.50;;;;;;;12.65;58.89;95197.19;5036295;28;20187;-69
2023/03/10 05:59:33;;;;;;;1.83;1.20;;;;;;;12.69;59.18;95193.13;5047480;28;20295;-69
2023/03/10 06:01:58;;;;;;;7.23;2.20;;;;;;;12.69;59.33;95190.50;5039352;28;20710;-69
2023/03/10 06:04:27;;;;;;;4.63;1.50;;;;;;;12.58;59.20;95188.56;5050788;28;20217;-70
2023/03/10 06:06:54;;;;;;;3.17;1.00;;;;;;;12.52;59.99;95184.16;5045871;28;20269;-69
2023/03/10 06:09:20;;;;;;;1.33;1.00;;;;;;;12.45;60.83;95173.69;5044465;28;20418;-68
2023/03/10 06:11:45;;;;;;;2.23;1.00;;;;;;;12.48;61.44;95173.28;5034353;28;20429;-69
2023/03/10 06:14:11;;;;;;;2.63;1.17;;;;;;;12.46;61.50;95185.03;5046262;28;21681;-69
2023/03/10 06:16:36;;;;;;;2.30;1.03;;;;;;;12.44;62.13;95193.91;5035086;28;20176;-69
2023/03/10 06:19:02;;;;;;;2.53;1.00;;;;;;;12.40;62.70;95192.72;5033998;28;20344;-69
2023/03/10 06:21:28;;;;;;;1.43;0.90;;;;;;;12.10;63.85;95193.31;5032567;28;20270;-68
2023/03/10 06:23:53;;;;;;;2.40;0.90;;;;;;;11.94;64.32;95197.22;5034386;28;20207;-68
2023/03/10 06:26:19;;;;;;;1.53;0.70;;;;;;;11.81;64.51;95182.34;5039242;28;20440;-68
2023/03/10 06:28:45;;;;;;;1.30;0.80;;;;;;;11.80;65.09;95185.97;5032674;28;20270;-69
2023/03/10 06:31:30;;;;;;;4.00;1.10;;;;;;;11.73;64.73;95169.44;5032182;28;20232;-69
2023/03/10 06:33:56;;;;;;;2.07;1.10;;;;;;;11.74;63.81;95159.78;5038225;28;20602;-68
2023/03/10 06:36:22;;;;;;;2.30;1.43;;;;;;;11.77;64.37;95138.38;5032320;28;20524;-70
2023/03/10 06:38:48;;;;;;;1.50;0.70;;;;;;;11.62;64.23;95126.31;5032289;28;20692;-69
2023/03/10 06:41:15;;;;;;;1.83;0.70;;;;;;;11.69;63.95;95126.28;5037478;28;21061;-68
2023/03/10 06:43:41;;;;;;;2.37;1.20;;;;;;;11.80;63.99;95117.75;5041497;28;20217;-68
2023/03/10 06:46:08;;;;;;;0.80;0.50;;;;;;;11.64;63.56;95139.22;5035209;28;20513;-69
2023/03/10 06:48:34;;;;;;;1.10;0.70;;;;;;;11.82;63.63;95136.72;5034241;28;20180;-68
2023/03/10 06:51:00;;;;;;;1.47;0.70;;;;;;;11.90;63.95;95119.09;5029943;28;20509;-69
2023/03/10 06:53:28;;;;;;;0.90;0.60;;;;;;;11.87;63.72;95116.91;5037344;28;20494;-69
2023/03/10 06:56:01;;;;;;;1.10;0.80;;;;;;;11.78;63.94;95105.88;5029521;28;20986;-70
2023/03/10 06:58:28;;;;;;;1.00;0.70;;;;;;;11.92;63.63;95115.25;5039041;28;20882;-70
2023/03/10 07:00:54;;;;;;;2.60;0.70;;;;;;;12.24;64.09;95117.91;5032949;28;20434;-70
2023/03/10 07:03:19;;;;;;;2.90;0.70;;;;;;;12.30;63.58;95113.59;5035239;28;21170;-69
2023/03/10 07:05:45;;;;;;;1.70;0.80;;;;;;;12.52;64.16;95113.22;5031411;28;20269;-70
2023/03/10 07:08:10;;;;;;;1.00;0.80;;;;;;;12.52;63.34;95115.84;5039037;28;20179;-69
2023/03/10 07:10:35;;;;;;;1.87;0.70;;;;;;;12.42;63.10;95114.53;5033751;28;20273;-69
2023/03/10 07:13:01;;;;;;;5.80;0.70;;;;;;;12.53;63.29;95115.66;5041106;28;20341;-69
2023/03/10 07:15:27;;;;;;;1.67;1.20;;;;;;;12.64;62.91;95106.25;5037339;28;20183;-70
2023/03/10 07:17:55;;;;;;;1.97;1.00;;;;;;;12.62;62.76;95104.88;5050012;28;20987;-69
2023/03/10 07:20:21;;;;;;;1.83;0.77;;;;;;;12.72;62.52;95118.31;5029061;28;20712;-69
2023/03/10 07:22:46;;;;;;;1.00;0.73;;;;;;;12.79;62.09;95112.97;5031477;28;20505;-69
2023/03/10 07:25:12;;;;;;;1.13;0.70;;;;;;;12.77;61.95;95115.03;5035185;28;20989;-69
2023/03/10 07:27:37;;;;;;;1.17;0.90;;;;;;;12.68;62.16;95117.13;5029465;28;20179;-69
2023/03/10 07:30:03;;;;;;;1.20;0.80;;;;;;;12.72;62.42;95127.00;5043158;28;20232;-69
2023/03/10 07:32:29;;;;;;;2.10;0.80;;;;;;;12.67;62.88;95133.91;5029528;28;20206;-69
2023/03/10 07:34:54;;;;;;;1.00;0.70;;;;;;;12.80;62.92;95143.50;5035384;28;20935;-70
2023/03/10 07:37:20;;;;;;;2.93;0.80;;;;;;;12.81;62.70;95145.91;5029619;28;20274;-69
2023/03/10 07:39:45;;;;;;;1.23;0.73;;;;;;;12.84;62.96;95147.31;5034243;28;20298;-69
2023/03/10 07:42:11;;;;;;;2.60;0.83;;;;;;;12.85;62.90;95148.94;5034925;28;20334;-70
2023/03/10 07:44:36;;;;;;;11.33;1.27;;;;;;;12.86;62.43;95145.25;5035943;28;20207;-69
2023/03/10 07:47:02;;;;;;;1.37;0.70;;;;;;;12.75;63.28;95149.41;5034282;28;20183;-70
2023/03/10 07:49:27;;;;;;;3.63;0.83;;;;;;;12.78;63.16;95145.53;5033348;28;20854;-70
2023/03/10 07:51:53;;;;;;;2.80;0.87;;;;;;;12.69;63.46;95151.09;5046726;28;21715;-70
2023/03/10 07:54:18;;;;;;;1.50;1.10;;;;;;;12.70;63.61;95162.38;5041505;28;20614;-70
2023/03/10 07:56:43;;;;;;;1.67;0.80;;;;;;;12.83;63.77;95161.47;5051066;28;20187;-69
2023/03/10 07:59:09;;;;;;;1.93;1.20;;;;;;;12.78;64.06;95169.19;5038243;28;20287;-70
2023/03/10 08:01:35;;;;;;;2.80;0.80;;;;;;;12.62;63.79;95197.63;5037837;28;20297;-69
2023/03/10 08:04:00;;;;;;;2.53;1.10;;;;;;;12.54;64.03;95177.66;5037696;28;20231;-69
2023/03/10 08:06:27;;;;;;;3.17;1.10;;;;;;;12.43;64.53;95188.84;5038423;28;20674;-69
2023/03/10 08:08:53;;;;;;;6.23;1.00;;;;;;;12.50;64.50;95200.16;5041156;28;20186;-69
2023/03/10 08:11:19;;;;;;;1.40;0.90;;;;;;;12.34;63.94;95196.22;5038098;28;20442;-69
2023/03/10 08:13:46;;;;;;;1.83;1.00;;;;;;;12.48;63.77;95203.97;5040199;28;20227;-68
2023/03/10 08:16:15;;;;;;;1.27;0.80;;;;;;;12.23;63.39;95213.44;5054042;28;20425;-69
2023/03/10 08:18:41;;;;;;;3.23;0.73;;;;;;;12.33;63.54;95199.84;5049320;28;20554;-69
2023/03/10 08:21:06;;;;;;;2.23;0.83;;;;;;;12.27;63.21;95179.69;5048207;28;20930;-71
2023/03/10 08:23:33;;;;;;;1.20;0.70;;;;;;;11.95;63.00;95182.28;5044394;28;20203;-70
2023/03/10 08:26:03;;;;;;;3.03;0.73;;;;;;;11.91;63.20;95196.84;5046566;28;20667;-68
2023/03/10 08:28:29;;;;;;;3.53;1.00;;;;;;;12.06;63.29;95194.75;5041713;28;20441;-70
2023/03/10 08:30:57;;;;;;;1.97;0.77;;;;;;;12.04;63.66;95199.41;5048589;28;21175;-72
2023/03/10 08:33:22;;;;;;;1.40;0.80;;;;;;;11.98;63.37;95195.81;5037701;28;20203;-70
2023/03/10 08:35:48;;;;;;;1.70;0.73;;;;;;;12.06;63.04;95205.28;5053628;28;20452;-70
2023/03/10 08:38:13;;;;;;;2.23;0.83;;;;;;;12.00;63.20;95198.22;5049781;28;20302;-70
2023/03/10 08:40:38;;;;;;;1.67;0.90;;;;;;;12.13;63.29;95190.28;5046733;28;20679;-70
2023/03/10 08:43:05;;;;;;;3.30;1.07;;;;;;;12.54;63.30;95195.25;5047067;28;20356;-68
2023/03/10 08:45:30;;;;;;;1.40;0.70;;;;;;;13.08;62.39;95194.81;5030241;28;20668;-70
2023/03/10 08:47:56;;;;;;;1.63;1.10;;;;;;;13.68;60.92;95194.19;5032990;28;20452;-70
2023/03/10 08:50:21;;;;;;;1.90;0.70;;;;;;;14.21;60.37;95203.25;5037898;28;20222;-70
2023/03/10 08:52:47;;;;;;;2.03;1.00;;;;;;;14.36;59.38;95205.47;5037076;28;20194;-69
2023/03/10 08:55:12;;;;;;;1.70;0.87;;;;;;;14.36;59.12;95210.72;5040253;28;20191;-70
2023/03/10 08:57:38;;;;;;;2.27;0.83;;;;;;;14.33;59.38;95194.56;5047180;28;20274;-70
2023/03/10 09:00:05;;;;;;;2.73;1.03;;;;;;;14.27;58.27;95201.53;5040172;28;20187;-68
2023/03/10 09:02:30;;;;;;;1.37;0.80;;;;;;;14.40;58.33;95208.44;5030793;28;20731;-71
2023/03/10 09:04:56;;;;;;;1.47;0.60;;;;;;;14.57;57.18;95217.31;5033710;28;20449;-70
2023/03/10 09:07:21;;;;;;;3.53;0.80;;;;;;;14.97;57.02;95215.13;5037457;28;20191;-70
2023/03/10 09:09:47;;;;;;;2.50;0.97;;;;;;;15.14;54.50;95223.16;5038505;28;20187;-71
2023/03/10 09:12:12;;;;;;;2.20;0.80;;;;;;;15.47;55.01;95216.47;5029912;28;20187;-70
2023/03/10 09:14:37;;;;;;;2.50;0.90;;;;;;;15.73;54.52;95209.88;5038360;28;20672;-71
2023/03/10 09:17:04;;;;;;;3.63;1.00;;;;;;;16.04;53.78;95207.84;5040396;28;20195;-69
2023/03/10 09:19:29;;;;;;;3.10;0.90;;;;;;;16.26;52.43;95220.41;5040586;28;20214;-70
2023/03/10 09:21:56;;;;;;;5.27;1.20;;;;;;;16.15;51.95;95223.88;5036207;28;20840;-70
2023/03/10 09:24:22;;;;;;;5.40;1.80;;;;;;;16.27;52.09;95227.28;5034020;28;20298;-69
2023/03/10 09:26:48;;;;;;;1.63;1.00;;;;;;;15.90;51.94;95225.81;5042510;28;20537;-70
2023/03/10 09:29:13;;;;;;;2.37;1.00;;;;;;;15.81;51.43;95222.72;5036673;28;20430;-69
2023/03/10 09:31:39;;;;;;;4.47;0.90;;;;;;;15.91;49.92;95223.97;5034981;28;20202;-70
2023/03/10 09:34:05;;;;;;;4.37;0.90;;;;;;;16.29;50.60;95230.50;5035474;28;20570;-69
2023/03/10 09:36:31;;;;;;;2.07;0.90;;;;;;;16.70;49.36;95215.34;5030325;28;20187;-70
2023/03/10 09:38:57;;;;;;;1.57;0.70;;;;;;;16.27;48.58;95212.25;5038416;28;20461;-70
2023/03/10 09:41:32;;;;;;;1.50;0.70;;;;;;;16.27;48.49;95216.72;5028536;28;20870;-69
2023/03/10 09:44:04;;;;;;;2.10;0.90;;;;;;;16.55;48.73;95204.50;5036062;28;20449;-71
2023/03/10 09:46:50;;;;;;;4.40;0.90;;;;;;;16.65;48.97;95223.19;5031449;28;20510;-70
2023/03/10 09:49:37;;;;;;;1.90;0.80;;;;;;;16.46;48.41;95221.81;5016331;28;20865;-70
2023/03/10 09:52:27;;;;;;;4.50;0.93;;;;;;;16.24;48.99;95227.78;5032728;28;20422;-70
2023/03/10 09:55:05;;;;;;;1.67;0.80;;;;;;;16.07;49.96;95217.97;5038561;28;21142;-70
2023/03/10 09:57:31;;;;;;;3.20;1.17;;;;;;;15.93;49.30;95228.00;5042656;28;20520;-70
2023/03/10 10:00:01;;;;;;;2.83;0.90;;;;;;;15.89;50.91;95224.22;5037806;28;20467;-70
2023/03/10 10:02:33;;;;;;;1.93;0.93;;;;;;;15.70;50.82;95234.09;5043367;28;20429;-70
2023/03/10 10:05:01;;;;;;;3.07;0.90;;;;;;;15.49;50.90;95220.50;5038543;28;20592;-71
2023/03/10 10:07:30;;;;;;;3.43;0.90;;;;;;;15.42;51.51;95222.44;5048787;28;20437;-69
2023/03/10 10:10:03;;;;;;;5.70;1.23;;;;;;;15.40;51.79;95229.78;5036345;28;20419;-70
2023/03/10 10:12:28;;;;;;;3.67;1.10;;;;;;;14.96;52.58;95239.88;5038928;28;20441;-70
2023/03/10 10:15:00;;;;;;;5.17;0.90;;;;;;;14.78;53.02;95236.28;5041689;28;20462;-70
2023/03/10 10:17:29;;;;;;;1.83;0.80;;;;;;;14.78;52.55;95228.38;5034459;28;20198;-70
2023/03/10 10:19:56;;;;;;;3.67;1.00;;;;;;;14.64;52.36;95227.75;5043637;28;20599;-70
2023/03/10 10:22:36;;;;;;;2.80;0.83;;;;;;;14.64;53.54;95219.03;5031867;28;20415;-70
2023/03/10 10:25:08;;;;;;;2.80;0.80;;;;;;;14.69;52.99;95225.25;5029505;28;20461;-70
2023/03/10 10:27:34;;;;;;;1.80;0.87;;;;;;;14.53;53.01;95213.53;5036626;28;20428;-70
2023/03/10 10:30:38;;;;;;;2.90;0.70;;;;;;;14.50;53.12;95216.59;5039929;28;20436;-69
2023/03/10 10:33:14;;;;;;;6.27;1.17;;;;;;;14.69;53.18;95216.56;5031387;28;20444;-70
2023/03/10 10:36:05;;;;;;;5.17;1.10;;;;;;;14.32;53.80;95220.09;5031777;28;20429;-70
2023/03/10 10:38:31;;;;;;;1.00;0.80;;;;;;;14.39;53.70;95222.66;5036685;28;20474;-70
2023/03/10 10:41:05;;;;;;;2.50;0.80;;;;;;;14.29;54.71;95213.47;5034841;28;20436;-70
2023/03/10 10:43:39;;;;;;;6.20;1.10;;;;;;;14.03;54.76;95219.91;5033432;28;20217;-70
2023/03/10 10:46:06;;;;;;;2.23;0.87;;;;;;;14.39;54.87;95222.66;5042906;28;20791;-70
2023/03/10 10:48:36;;;;;;;2.60;0.77;;;;;;;14.37;55.18;95219.44;5039667;28;20434;-71
2023/03/10 10:51:03;;;;;;;2.53;1.10;;;;;;;14.42;54.88;95216.94;5034614;28;20462;-70
2023/03/10 10:53:33;;;;;;;4.30;0.93;;;;;;;14.42;54.81;95219.56;5036877;28;20454;-70
2023/03/10 10:56:12;;;;;;;7.57;0.97;;;;;;;14.36;54.81;95231.03;5031873;28;20512;-70
2023/03/10 10:58:39;;;;;;;2.53;0.97;;;;;;;13.97;55.06;95216.31;5039323;28;20452;-70
2023/03/10 11:01:07;;;;;;;2.27;0.87;;;;;;;14.18;55.87;95216.84;5037842;28;20426;-70
2023/03/10 11:03:34;;;;;;;5.50;0.80;;;;;;;14.05;55.94;95212.56;5044777;28;20453;-70
2023/03/10 11:06:01;;;;;;;3.23;0.80;;;;;;;13.81;55.37;95220.34;5037231;28;21000;-70
2023/03/10 11:08:29;;;;;;;1.70;0.87;;;;;;;13.93;54.23;95209.88;5035072;28;20583;-71
2023/03/10 11:11:12;;;;;;;3.20;0.70;;;;;;;13.72;54.58;95231.41;5033899;28;20931;-70
2023/03/10 11:13:49;;;;;;;2.73;0.97;;;;;;;13.75;54.67;95230.97;5033683;28;20492;-70
2023/03/10 11:16:22;;;;;;;1.37;0.80;;;;;;;13.94;53.99;95213.31;5035500;28;20426;-70
2023/03/10 11:18:54;;;;;;;3.17;1.00;;;;;;;14.05;53.97;95230.19;5050662;28;20519;-70
2023/03/10 11:21:26;;;;;;;2.13;0.70;;;;;;;14.03;53.88;95243.59;5026169;28;20938;-71
2023/03/10 11:24:29;;;;;;;2.03;0.90;;;;;;;14.16;54.31;95234.72;5042308;28;21108;-69
2023/03/10 11:27:03;;;;;;;2.13;1.20;;;;;;;13.83;54.48;95238.56;5035230;28;20504;-70
2023/03/10 11:30:13;;;;;;;4.30;2.30;;;;;;;14.04;54.46;95254.94;5043450;28;20422;-69
2023/03/10 11:32:59;;;;;;;2.50;1.13;;;;;;;14.10;54.88;95254.84;5040195;28;20949;-70
2023/03/10 11:35:28;;;;;;;3.97;0.90;;;;;;;14.29;54.76;95250.34;5037166;28;20418;-69
2023/03/10 11:38:06;;;;;;;3.10;1.10;;;;;;;14.16;54.65;95258.41;5042693;28;20434;-70